sensor_id;sensor_type;location;lat;lon;timestamp;pressure;altitude;pressure_sealevel;temperature;humidity
29879;BME280;16752;53.364;-1.488;2022-12-13T00:01:20;99832.09;;;9.49;45.54
29879;BME280;16752;53.364;-1.488;2022-12-13T00:03:46;99826.97;;;9.10;46.07
29879;BME280;16752;53.364;-1.488;2022-12-13T00:06:12;99824.38;;;9.23;45.85
29879;BME280;16752;53.364;-1.488;2022-12-13T00:08:38;99819.56;;;9.42;45.37
29879;BME280;16752;53.364;-1.488;2022-12-13T00:11:04;99816.53;;;8.97;46.42
29879;BME280;16752;53.364;-1.488;2022-12-13T00:13:30;99823.66;;;8.95;46.54
29879;BME280;16752;53.364;-1.488;2022-12-13T00:15:56;99820.28;;;9.31;45.72
29879;BME280;16752;53.364;-1.488;2022-12-13T00:18:22;99820.41;;;9.30;45.77
29879;BME280;16752;53.364;-1.488;2022-12-13T00:20:48;99821.69;;;9.11;46.34
29879;BME280;16752;53.364;-1.488;2022-12-13T00:23:13;99812.88;;;9.25;45.92
29879;BME280;16752;53.364;-1.488;2022-12-13T00:25:38;99822.72;;;9.22;46.13
29879;BME280;16752;53.364;-1.488;2022-12-13T00:28:04;99822.72;;;9.22;45.88
29879;BME280;16752;53.364;-1.488;2022-12-13T00:30:30;99823.00;;;9.30;45.87
29879;BME280;16752;53.364;-1.488;2022-12-13T00:32:58;99824.81;;;9.16;46.03
29879;BME280;16752;53.364;-1.488;2022-12-13T00:35:23;99822.94;;;8.93;46.38
29879;BME280;16752;53.364;-1.488;2022-12-13T00:37:49;99818.50;;;9.32;45.84
29879;BME280;16752;53.364;-1.488;2022-12-13T00:40:14;99818.09;;;9.38;45.56
29879;BME280;16752;53.364;-1.488;2022-12-13T00:42:40;99822.59;;;9.36;45.71
29879;BME280;16752;53.364;-1.488;2022-12-13T00:45:06;99823.94;;;9.41;45.53
29879;BME280;16752;53.364;-1.488;2022-12-13T00:47:31;99814.13;;;9.45;45.47
29879;BME280;16752;53.364;-1.488;2022-12-13T00:49:57;99817.44;;;9.47;45.72
29879;BME280;16752;53.364;-1.488;2022-12-13T00:52:22;99812.94;;;9.49;45.69
29879;BME280;16752;53.364;-1.488;2022-12-13T00:54:47;99818.41;;;9.46;45.56
29879;BME280;16752;53.364;-1.488;2022-12-13T00:57:13;99816.50;;;9.48;45.62
29879;BME280;16752;53.364;-1.488;2022-12-13T00:59:38;99807.22;;;9.31;46.02
29879;BME280;16752;53.364;-1.488;2022-12-13T01:02:04;99808.81;;;8.96;46.69
29879;BME280;16752;53.364;-1.488;2022-12-13T01:04:30;99808.91;;;9.07;46.59
29879;BME280;16752;53.364;-1.488;2022-12-13T01:06:55;99812.03;;;9.37;45.81
29879;BME280;16752;53.364;-1.488;2022-12-13T01:09:22;99803.59;;;8.96;46.77
29879;BME280;16752;53.364;-1.488;2022-12-13T01:11:49;99811.00;;;9.40;45.97
29879;BME280;16752;53.364;-1.488;2022-12-13T01:14:15;99809.81;;;9.44;45.61
29879;BME280;16752;53.364;-1.488;2022-12-13T01:16:41;99807.09;;;9.45;45.72
29879;BME280;16752;53.364;-1.488;2022-12-13T01:19:07;99810.34;;;9.49;45.65
29879;BME280;16752;53.364;-1.488;2022-12-13T01:21:33;99801.75;;;9.47;45.71
29879;BME280;16752;53.364;-1.488;2022-12-13T01:23:59;99795.59;;;9.48;45.47
29879;BME280;16752;53.364;-1.488;2022-12-13T01:26:26;99793.19;;;9.45;45.55
29879;BME280;16752;53.364;-1.488;2022-12-13T01:28:52;99796.75;;;9.44;45.57
29879;BME280;16752;53.364;-1.488;2022-12-13T01:31:18;99795.09;;;9.43;45.45
29879;BME280;16752;53.364;-1.488;2022-12-13T01:33:44;99791.88;;;9.01;46.65
29879;BME280;16752;53.364;-1.488;2022-12-13T01:36:12;99796.13;;;9.40;45.90
29879;BME280;16752;53.364;-1.488;2022-12-13T01:38:37;99788.41;;;9.39;45.99
29879;BME280;16752;53.364;-1.488;2022-12-13T01:41:03;99791.75;;;9.41;45.96
29879;BME280;16752;53.364;-1.488;2022-12-13T01:46:00;99791.03;;;9.39;45.89
29879;BME280;16752;53.364;-1.488;2022-12-13T01:48:27;99787.75;;;9.48;45.64
29879;BME280;16752;53.364;-1.488;2022-12-13T01:50:54;99788.47;;;9.50;45.54
29879;BME280;16752;53.364;-1.488;2022-12-13T01:53:22;99793.91;;;9.47;45.67
29879;BME280;16752;53.364;-1.488;2022-12-13T01:55:51;99790.38;;;9.48;45.63
29879;BME280;16752;53.364;-1.488;2022-12-13T01:58:17;99789.53;;;9.47;45.54
29879;BME280;16752;53.364;-1.488;2022-12-13T02:00:43;99798.44;;;9.45;45.59
29879;BME280;16752;53.364;-1.488;2022-12-13T02:03:09;99797.38;;;9.47;45.52
29879;BME280;16752;53.364;-1.488;2022-12-13T02:05:40;99793.81;;;9.48;45.41
29879;BME280;16752;53.364;-1.488;2022-12-13T02:08:07;99795.09;;;9.43;45.87
29879;BME280;16752;53.364;-1.488;2022-12-13T02:10:33;99798.94;;;9.50;45.78
29879;BME280;16752;53.364;-1.488;2022-12-13T02:12:58;99797.47;;;9.59;45.38
29879;BME280;16752;53.364;-1.488;2022-12-13T02:15:26;99799.13;;;9.60;45.49
29879;BME280;16752;53.364;-1.488;2022-12-13T02:22:48;99806.25;;;9.58;45.25
29879;BME280;16752;53.364;-1.488;2022-12-13T02:35:24;99811.59;;;9.43;45.56
29879;BME280;16752;53.364;-1.488;2022-12-13T02:40:37;99805.09;;;9.62;45.25
29879;BME280;16752;53.364;-1.488;2022-12-13T02:43:14;99799.75;;;9.63;44.98
29879;BME280;16752;53.364;-1.488;2022-12-13T02:45:46;99802.38;;;9.63;45.20
29879;BME280;16752;53.364;-1.488;2022-12-13T02:48:14;99800.47;;;9.65;45.17
29879;BME280;16752;53.364;-1.488;2022-12-13T02:50:42;99796.06;;;9.66;45.42
29879;BME280;16752;53.364;-1.488;2022-12-13T02:53:08;99795.13;;;9.67;45.18
29879;BME280;16752;53.364;-1.488;2022-12-13T02:55:34;99793.81;;;9.48;45.56
29879;BME280;16752;53.364;-1.488;2022-12-13T02:58:01;99800.69;;;9.62;45.29
29879;BME280;16752;53.364;-1.488;2022-12-13T03:03:32;99799.16;;;9.47;45.60
29879;BME280;16752;53.364;-1.488;2022-12-13T03:11:22;99795.47;;;9.62;45.24
29879;BME280;16752;53.364;-1.488;2022-12-13T03:13:56;99796.03;;;9.42;45.76
29879;BME280;16752;53.364;-1.488;2022-12-13T03:16:34;99800.81;;;9.61;45.29
29879;BME280;16752;53.364;-1.488;2022-12-13T03:19:02;99800.25;;;9.68;45.31
29879;BME280;16752;53.364;-1.488;2022-12-13T03:21:28;99801.31;;;9.66;45.01
29879;BME280;16752;53.364;-1.488;2022-12-13T03:23:54;99807.00;;;9.47;45.29
29879;BME280;16752;53.364;-1.488;2022-12-13T03:26:20;99806.16;;;9.59;45.17
29879;BME280;16752;53.364;-1.488;2022-12-13T03:28:46;99808.53;;;9.62;45.21
29879;BME280;16752;53.364;-1.488;2022-12-13T03:31:11;99808.97;;;9.56;45.56
29879;BME280;16752;53.364;-1.488;2022-12-13T03:33:36;99811.38;;;9.59;45.36
29879;BME280;16752;53.364;-1.488;2022-12-13T03:36:03;99807.81;;;9.60;45.48
29879;BME280;16752;53.364;-1.488;2022-12-13T03:38:29;99808.22;;;9.67;45.24
29879;BME280;16752;53.364;-1.488;2022-12-13T03:40:55;99793.84;;;9.36;45.82
29879;BME280;16752;53.364;-1.488;2022-12-13T03:43:21;99795.25;;;9.65;45.17
29879;BME280;16752;53.364;-1.488;2022-12-13T03:45:48;99800.81;;;9.61;45.33
29879;BME280;16752;53.364;-1.488;2022-12-13T03:48:14;99796.75;;;9.44;45.60
29879;BME280;16752;53.364;-1.488;2022-12-13T03:50:40;99800.09;;;9.46;45.54
29879;BME280;16752;53.364;-1.488;2022-12-13T03:53:06;99805.94;;;9.62;45.22
29879;BME280;16752;53.364;-1.488;2022-12-13T03:55:31;99802.66;;;9.71;45.02
29879;BME280;16752;53.364;-1.488;2022-12-13T03:57:56;99804.31;;;9.72;44.95
29879;BME280;16752;53.364;-1.488;2022-12-13T04:00:22;99796.69;;;9.69;44.96
29879;BME280;16752;53.364;-1.488;2022-12-13T04:02:48;99801.41;;;9.64;45.19
29879;BME280;16752;53.364;-1.488;2022-12-13T04:05:13;99795.75;;;9.70;45.17
29879;BME280;16752;53.364;-1.488;2022-12-13T04:07:38;99792.19;;;9.71;45.05
29879;BME280;16752;53.364;-1.488;2022-12-13T04:10:04;99794.69;;;9.73;44.99
29879;BME280;16752;53.364;-1.488;2022-12-13T04:12:30;99791.97;;;9.74;45.26
29879;BME280;16752;53.364;-1.488;2022-12-13T04:15:14;99797.13;;;9.76;45.15
29879;BME280;16752;53.364;-1.488;2022-12-13T04:17:39;99789.78;;;9.68;45.13
29879;BME280;16752;53.364;-1.488;2022-12-13T04:20:05;99783.38;;;9.72;45.02
29879;BME280;16752;53.364;-1.488;2022-12-13T04:22:31;99782.88;;;9.67;45.26
29879;BME280;16752;53.364;-1.488;2022-12-13T04:24:57;99784.19;;;9.49;45.44
29879;BME280;16752;53.364;-1.488;2022-12-13T04:27:23;99789.19;;;9.65;45.11
29879;BME280;16752;53.364;-1.488;2022-12-13T04:29:48;99783.72;;;9.68;44.93
29879;BME280;16752;53.364;-1.488;2022-12-13T04:32:13;99787.19;;;9.68;44.95
29879;BME280;16752;53.364;-1.488;2022-12-13T04:34:39;99791.47;;;9.69;44.96
29879;BME280;16752;53.364;-1.488;2022-12-13T04:37:04;99791.47;;;9.69;44.99
29879;BME280;16752;53.364;-1.488;2022-12-13T04:39:30;99781.22;;;9.66;45.20
29879;BME280;16752;53.364;-1.488;2022-12-13T04:41:55;99781.22;;;9.66;45.15
29879;BME280;16752;53.364;-1.488;2022-12-13T04:44:20;99782.88;;;9.67;45.10
29879;BME280;16752;53.364;-1.488;2022-12-13T04:46:46;99773.56;;;9.76;45.09
29879;BME280;16752;53.364;-1.488;2022-12-13T04:49:11;99768.03;;;9.68;45.08
29879;BME280;16752;53.364;-1.488;2022-12-13T04:51:37;99778.31;;;9.58;45.45
29879;BME280;16752;53.364;-1.488;2022-12-13T04:54:02;99774.78;;;9.59;45.17
29879;BME280;16752;53.364;-1.488;2022-12-13T04:56:29;99772.44;;;9.67;45.26
29879;BME280;16752;53.364;-1.488;2022-12-13T04:58:55;99766.38;;;9.67;44.94
29879;BME280;16752;53.364;-1.488;2022-12-13T05:01:20;99762.91;;;9.66;44.90
29879;BME280;16752;53.364;-1.488;2022-12-13T05:03:46;99771.59;;;9.67;45.11
29879;BME280;16752;53.364;-1.488;2022-12-13T05:06:12;99762.91;;;9.66;45.00
29879;BME280;16752;53.364;-1.488;2022-12-13T05:08:38;99762.81;;;9.68;45.16
29879;BME280;16752;53.364;-1.488;2022-12-13T05:11:04;99777.66;;;9.67;45.06
29879;BME280;16752;53.364;-1.488;2022-12-13T05:13:29;99772.94;;;9.72;45.12
29879;BME280;16752;53.364;-1.488;2022-12-13T05:15:59;99771.97;;;9.73;45.13
29879;BME280;16752;53.364;-1.488;2022-12-13T05:18:25;99776.94;;;9.65;45.21
29879;BME280;16752;53.364;-1.488;2022-12-13T05:20:51;99777.31;;;9.72;45.11
29879;BME280;16752;53.364;-1.488;2022-12-13T05:23:17;99777.22;;;9.73;44.94
29879;BME280;16752;53.364;-1.488;2022-12-13T05:25:43;99775.53;;;9.72;45.12
29879;BME280;16752;53.364;-1.488;2022-12-13T05:28:08;99778.16;;;9.72;45.19
29879;BME280;16752;53.364;-1.488;2022-12-13T05:30:36;99776.38;;;9.73;45.08
29879;BME280;16752;53.364;-1.488;2022-12-13T05:33:02;99775.31;;;9.75;45.10
29879;BME280;16752;53.364;-1.488;2022-12-13T05:35:27;99777.22;;;9.73;45.01
29879;BME280;16752;53.364;-1.488;2022-12-13T05:37:53;99779.09;;;9.71;45.12
29879;BME280;16752;53.364;-1.488;2022-12-13T05:40:18;99777.22;;;9.73;44.95
29879;BME280;16752;53.364;-1.488;2022-12-13T05:42:44;99784.94;;;9.75;45.25
29879;BME280;16752;53.364;-1.488;2022-12-13T05:45:09;99784.13;;;9.74;44.84
29879;BME280;16752;53.364;-1.488;2022-12-13T05:47:36;99772.94;;;9.72;44.85
29879;BME280;16752;53.364;-1.488;2022-12-13T05:50:02;99779.22;;;9.70;45.23
29879;BME280;16752;53.364;-1.488;2022-12-13T05:52:28;99776.28;;;9.74;45.02
29879;BME280;16752;53.364;-1.488;2022-12-13T05:54:53;99776.19;;;9.76;44.96
29879;BME280;16752;53.364;-1.488;2022-12-13T05:57:20;99782.13;;;9.78;45.19
29879;BME280;16752;53.364;-1.488;2022-12-13T05:59:45;99778.69;;;9.77;45.13
29879;BME280;16752;53.364;-1.488;2022-12-13T06:02:11;99775.78;;;9.69;45.46
29879;BME280;16752;53.364;-1.488;2022-12-13T06:04:37;99783.94;;;9.65;45.27
29879;BME280;16752;53.364;-1.488;2022-12-13T06:07:02;99773.47;;;9.77;45.10
29879;BME280;16752;53.364;-1.488;2022-12-13T06:09:28;99780.06;;;9.70;45.34
29879;BME280;16752;53.364;-1.488;2022-12-13T06:11:53;99778.16;;;9.72;45.30
29879;BME280;16752;53.364;-1.488;2022-12-13T06:14:19;99782.03;;;9.79;45.08
29879;BME280;16752;53.364;-1.488;2022-12-13T06:16:44;99777.94;;;9.75;45.17
29879;BME280;16752;53.364;-1.488;2022-12-13T06:19:09;99773.47;;;9.77;45.25
29879;BME280;16752;53.364;-1.488;2022-12-13T06:21:35;99776.19;;;9.76;45.12
29879;BME280;16752;53.364;-1.488;2022-12-13T06:24:00;99775.97;;;9.79;45.06
29879;BME280;16752;53.364;-1.488;2022-12-13T06:26:26;99777.66;;;9.67;45.10
29879;BME280;16752;53.364;-1.488;2022-12-13T06:28:51;99786.06;;;9.47;45.66
29879;BME280;16752;53.364;-1.488;2022-12-13T06:31:17;99781.91;;;9.32;45.72
29879;BME280;16752;53.364;-1.488;2022-12-13T06:33:42;99777.44;;;9.08;46.26
29879;BME280;16752;53.364;-1.488;2022-12-13T06:36:08;99772.63;;;8.64;47.13
29879;BME280;16752;53.364;-1.488;2022-12-13T06:38:34;99776.91;;;9.41;45.59
29879;BME280;16752;53.364;-1.488;2022-12-13T06:41:12;99773.81;;;9.60;45.36
29879;BME280;16752;53.364;-1.488;2022-12-13T06:43:41;99783.94;;;9.65;45.07
29879;BME280;16752;53.364;-1.488;2022-12-13T06:46:09;99778.81;;;9.63;45.14
29879;BME280;16752;53.364;-1.488;2022-12-13T06:48:34;99785.50;;;9.05;46.40
29879;BME280;16752;53.364;-1.488;2022-12-13T06:51:00;99794.66;;;9.49;45.58
29879;BME280;16752;53.364;-1.488;2022-12-13T06:53:26;99786.75;;;9.38;45.54
29879;BME280;16752;53.364;-1.488;2022-12-13T06:55:52;99785.50;;;9.67;45.03
29879;BME280;16752;53.364;-1.488;2022-12-13T06:58:18;99784.03;;;9.27;45.79
29879;BME280;16752;53.364;-1.488;2022-12-13T07:00:44;99786.34;;;8.80;46.83
29879;BME280;16752;53.364;-1.488;2022-12-13T07:03:10;99785.28;;;9.34;45.60
29879;BME280;16752;53.364;-1.488;2022-12-13T07:05:39;99780.56;;;9.39;45.29
29879;BME280;16752;53.364;-1.488;2022-12-13T07:08:04;99775.97;;;9.30;45.51
29879;BME280;16752;53.364;-1.488;2022-12-13T07:10:30;99780.22;;;9.56;45.42
29879;BME280;16752;53.364;-1.488;2022-12-13T07:12:55;99781.34;;;9.65;45.06
29879;BME280;16752;53.364;-1.488;2022-12-13T07:15:21;99784.44;;;9.70;44.85
29879;BME280;16752;53.364;-1.488;2022-12-13T07:17:50;99782.75;;;9.45;45.60
29879;BME280;16752;53.364;-1.488;2022-12-13T07:20:16;99782.53;;;9.48;45.20
29879;BME280;16752;53.364;-1.488;2022-12-13T07:22:43;99780.00;;;9.59;45.21
29879;BME280;16752;53.364;-1.488;2022-12-13T07:25:09;99775.78;;;9.69;44.97
29879;BME280;16752;53.364;-1.488;2022-12-13T07:27:35;99772.75;;;9.63;44.89
29879;BME280;16752;53.364;-1.488;2022-12-13T07:30:00;99772.94;;;9.72;44.76
29879;BME280;16752;53.364;-1.488;2022-12-13T07:32:26;99772.94;;;9.36;45.52
29879;BME280;16752;53.364;-1.488;2022-12-13T07:34:52;99770.78;;;9.54;45.01
29879;BME280;16752;53.364;-1.488;2022-12-13T07:37:17;99767.88;;;9.45;45.23
29879;BME280;16752;53.364;-1.488;2022-12-13T07:39:44;99771.81;;;8.89;46.39
29879;BME280;16752;53.364;-1.488;2022-12-13T07:42:09;99776.06;;;9.41;45.40
29879;BME280;16752;53.364;-1.488;2022-12-13T07:44:34;99778.81;;;9.01;46.02
29879;BME280;16752;53.364;-1.488;2022-12-13T07:47:00;99790.00;;;9.03;45.96
29879;BME280;16752;53.364;-1.488;2022-12-13T07:49:26;99776.09;;;9.15;45.40
29879;BME280;16752;53.364;-1.488;2022-12-13T07:51:51;99771.28;;;9.09;45.69
29879;BME280;16752;53.364;-1.488;2022-12-13T07:54:17;99764.66;;;9.29;45.38
29879;BME280;16752;53.364;-1.488;2022-12-13T07:56:42;99767.16;;;9.56;44.89
29879;BME280;16752;53.364;-1.488;2022-12-13T07:59:08;99767.41;;;9.64;45.04
29879;BME280;16752;53.364;-1.488;2022-12-13T08:01:34;99772.25;;;9.58;44.64
29879;BME280;16752;53.364;-1.488;2022-12-13T08:04:00;99771.22;;;9.60;44.40
29879;BME280;16752;53.364;-1.488;2022-12-13T08:06:25;99770.16;;;9.50;43.98
29879;BME280;16752;53.364;-1.488;2022-12-13T08:08:54;99784.16;;;9.62;44.16
29879;BME280;16752;53.364;-1.488;2022-12-13T08:11:20;99783.81;;;9.30;45.03
29879;BME280;16752;53.364;-1.488;2022-12-13T08:13:45;99785.19;;;8.84;45.20
29879;BME280;16752;53.364;-1.488;2022-12-13T08:16:11;99785.06;;;9.24;44.75
29879;BME280;16752;53.364;-1.488;2022-12-13T08:18:39;99793.41;;;9.55;44.52
29879;BME280;16752;53.364;-1.488;2022-12-13T08:21:05;99789.00;;;9.55;44.56
29879;BME280;16752;53.364;-1.488;2022-12-13T08:23:32;99780.31;;;9.55;44.03
29879;BME280;16752;53.364;-1.488;2022-12-13T08:25:58;99779.25;;;8.95;44.89
29879;BME280;16752;53.364;-1.488;2022-12-13T08:28:24;99774.72;;;9.10;44.21
29879;BME280;16752;53.364;-1.488;2022-12-13T08:30:50;99778.06;;;8.86;44.62
29879;BME280;16752;53.364;-1.488;2022-12-13T08:33:16;99777.34;;;8.59;45.04
29879;BME280;16752;53.364;-1.488;2022-12-13T08:35:42;99776.66;;;8.43;45.82
29879;BME280;16752;53.364;-1.488;2022-12-13T08:38:07;99787.91;;;8.70;45.10
29879;BME280;16752;53.364;-1.488;2022-12-13T08:40:33;99791.75;;;7.98;46.89
29879;BME280;16752;53.364;-1.488;2022-12-13T08:42:59;99801.53;;;7.94;46.73
29879;BME280;16752;53.364;-1.488;2022-12-13T08:45:24;99804.13;;;8.09;46.33
29879;BME280;16752;53.364;-1.488;2022-12-13T08:47:51;99807.22;;;8.28;46.00
29879;BME280;16752;53.364;-1.488;2022-12-13T08:50:16;99797.03;;;8.90;44.80
29879;BME280;16752;53.364;-1.488;2022-12-13T08:52:42;99801.91;;;9.33;43.76
29879;BME280;16752;53.364;-1.488;2022-12-13T08:55:12;99794.88;;;9.46;43.36
29879;BME280;16752;53.364;-1.488;2022-12-13T08:57:38;99799.25;;;9.45;43.39
29879;BME280;16752;53.364;-1.488;2022-12-13T09:00:04;99804.72;;;9.42;43.66
29879;BME280;16752;53.364;-1.488;2022-12-13T09:02:30;99807.31;;;9.55;43.68
29879;BME280;16752;53.364;-1.488;2022-12-13T09:04:56;99806.38;;;9.56;43.72
29879;BME280;16752;53.364;-1.488;2022-12-13T09:07:21;99800.97;;;8.96;44.03
29879;BME280;16752;53.364;-1.488;2022-12-13T09:09:46;99800.84;;;9.23;43.14
29879;BME280;16752;53.364;-1.488;2022-12-13T09:12:12;99789.47;;;9.24;43.01
29879;BME280;16752;53.364;-1.488;2022-12-13T09:14:37;99788.78;;;9.58;42.78
29879;BME280;16752;53.364;-1.488;2022-12-13T09:17:03;99791.28;;;9.60;42.85
29879;BME280;16752;53.364;-1.488;2022-12-13T09:19:28;99790.28;;;9.37;43.13
29879;BME280;16752;53.364;-1.488;2022-12-13T09:21:54;99786.22;;;8.56;44.34
29879;BME280;16752;53.364;-1.488;2022-12-13T09:24:19;99788.41;;;8.88;43.99
29879;BME280;16752;53.364;-1.488;2022-12-13T09:26:45;99784.66;;;9.05;44.50
29879;BME280;16752;53.364;-1.488;2022-12-13T09:29:35;99794.13;;;9.44;43.30
29879;BME280;16752;53.364;-1.488;2022-12-13T09:32:02;99801.66;;;9.61;43.39
29879;BME280;16752;53.364;-1.488;2022-12-13T09:34:27;99794.91;;;9.70;43.21
29879;BME280;16752;53.364;-1.488;2022-12-13T09:36:53;99793.28;;;9.56;43.40
29879;BME280;16752;53.364;-1.488;2022-12-13T09:39:19;99784.88;;;8.76;43.92
29879;BME280;16752;53.364;-1.488;2022-12-13T09:41:47;99776.19;;;8.50;44.70
29879;BME280;16752;53.364;-1.488;2022-12-13T09:44:23;99777.13;;;8.87;43.39
29879;BME280;16752;53.364;-1.488;2022-12-13T09:46:51;99783.97;;;8.38;45.17
29879;BME280;16752;53.364;-1.488;2022-12-13T09:51:48;99777.56;;;9.19;43.46
29879;BME280;16752;53.364;-1.488;2022-12-13T09:54:17;99778.53;;;8.93;43.77
29879;BME280;16752;53.364;-1.488;2022-12-13T09:56:43;99769.25;;;8.37;44.22
29879;BME280;16752;53.364;-1.488;2022-12-13T09:59:14;99775.63;;;8.45;44.08
29879;BME280;16752;53.364;-1.488;2022-12-13T10:01:41;99779.00;;;8.47;44.64
29879;BME280;16752;53.364;-1.488;2022-12-13T10:04:06;99779.97;;;8.84;43.68
29879;BME280;16752;53.364;-1.488;2022-12-13T10:06:35;99784.13;;;7.68;46.24
29879;BME280;16752;53.364;-1.488;2022-12-13T10:09:00;99775.91;;;8.01;45.62
29879;BME280;16752;53.364;-1.488;2022-12-13T10:11:26;99775.44;;;8.61;44.48
29879;BME280;16752;53.364;-1.488;2022-12-13T10:14:11;99779.16;;;8.05;45.72
29879;BME280;16752;53.364;-1.488;2022-12-13T10:16:44;99785.78;;;8.23;45.49
29879;BME280;16752;53.364;-1.488;2022-12-13T10:19:14;99780.56;;;8.63;44.91
29879;BME280;16752;53.364;-1.488;2022-12-13T10:21:41;99782.31;;;9.51;42.69
29879;BME280;16752;53.364;-1.488;2022-12-13T10:24:18;99779.84;;;9.24;42.79
29879;BME280;16752;53.364;-1.488;2022-12-13T10:26:43;99782.44;;;9.73;42.29
29879;BME280;16752;53.364;-1.488;2022-12-13T10:29:09;99774.59;;;9.97;41.67
29879;BME280;16752;53.364;-1.488;2022-12-13T10:31:44;99780.88;;;9.34;42.09
29879;BME280;16752;53.364;-1.488;2022-12-13T10:34:27;99772.38;;;9.43;42.08
29879;BME280;16752;53.364;-1.488;2022-12-13T10:36:53;99767.41;;;9.64;41.92
29879;BME280;16752;53.364;-1.488;2022-12-13T10:39:37;99764.81;;;9.64;41.61
29879;BME280;16752;53.364;-1.488;2022-12-13T10:42:04;99768.22;;;10.01;41.21
29879;BME280;16752;53.364;-1.488;2022-12-13T10:44:30;99762.66;;;10.06;40.73
29879;BME280;16752;53.364;-1.488;2022-12-13T10:47:02;99752.91;;;9.84;41.21
29879;BME280;16752;53.364;-1.488;2022-12-13T10:49:34;99759.13;;;10.18;41.17
29879;BME280;16752;53.364;-1.488;2022-12-13T10:52:01;99765.44;;;9.92;41.10
29879;BME280;16752;53.364;-1.488;2022-12-13T10:56:52;99766.09;;;9.83;41.74
29879;BME280;16752;53.364;-1.488;2022-12-13T10:59:37;99756.34;;;10.21;40.64
29879;BME280;16752;53.364;-1.488;2022-12-13T11:04:47;99755.25;;;10.00;40.44
29879;BME280;16752;53.364;-1.488;2022-12-13T11:07:23;99762.88;;;10.03;40.35
29879;BME280;16752;53.364;-1.488;2022-12-13T11:09:49;99753.25;;;10.27;40.16
29879;BME280;16752;53.364;-1.488;2022-12-13T11:12:16;99743.19;;;10.45;40.06
29879;BME280;16752;53.364;-1.488;2022-12-13T11:14:55;99743.22;;;10.56;39.52
29879;BME280;16752;53.364;-1.488;2022-12-13T11:17:23;99737.03;;;10.57;39.90
29879;BME280;16752;53.364;-1.488;2022-12-13T11:19:50;99723.84;;;10.81;39.89
29879;BME280;16752;53.364;-1.488;2022-12-13T11:22:24;99738.16;;;10.99;39.67
29879;BME280;16752;53.364;-1.488;2022-12-13T11:24:51;99736.22;;;11.24;39.59
29879;BME280;16752;53.364;-1.488;2022-12-13T11:27:35;99731.78;;;11.47;39.67
29879;BME280;16752;53.364;-1.488;2022-12-13T11:32:51;99725.31;;;11.84;39.08
29879;BME280;16752;53.364;-1.488;2022-12-13T11:40:48;99724.69;;;11.15;37.76
29879;BME280;16752;53.364;-1.488;2022-12-13T11:45:46;99716.00;;;11.15;38.15
29879;BME280;16752;53.364;-1.488;2022-12-13T11:50:53;99701.81;;;11.83;37.77
29879;BME280;16752;53.364;-1.488;2022-12-13T11:53:23;99706.09;;;11.84;38.48
29879;BME280;16752;53.364;-1.488;2022-12-13T11:55:53;99704.22;;;12.07;38.63
29879;BME280;16752;53.364;-1.488;2022-12-13T11:58:29;99699.78;;;12.07;38.92
29879;BME280;16752;53.364;-1.488;2022-12-13T12:01:03;99693.41;;;12.21;38.53
29879;BME280;16752;53.364;-1.488;2022-12-13T12:03:48;99693.44;;;11.89;38.43
29879;BME280;16752;53.364;-1.488;2022-12-13T12:06:17;99695.16;;;11.79;37.57
29879;BME280;16752;53.364;-1.488;2022-12-13T12:08:45;99694.56;;;11.64;38.08
29879;BME280;16752;53.364;-1.488;2022-12-13T12:11:19;99691.88;;;11.86;38.09
29879;BME280;16752;53.364;-1.488;2022-12-13T12:14:00;99700.06;;;12.04;37.62
29879;BME280;16752;53.364;-1.488;2022-12-13T12:18:58;99687.63;;;12.06;38.05
29879;BME280;16752;53.364;-1.488;2022-12-13T12:21:37;99682.44;;;11.95;38.17
29879;BME280;16752;53.364;-1.488;2022-12-13T12:26:57;99674.81;;;11.49;38.56
29879;BME280;16752;53.364;-1.488;2022-12-13T12:29:40;99673.19;;;11.37;38.45
29879;BME280;16752;53.364;-1.488;2022-12-13T12:37:14;99671.19;;;11.18;39.35
29879;BME280;16752;53.364;-1.488;2022-12-13T12:47:51;99664.28;;;11.17;39.83
29879;BME280;16752;53.364;-1.488;2022-12-13T12:50:23;99666.56;;;11.10;39.74
29879;BME280;16752;53.364;-1.488;2022-12-13T12:52:54;99656.66;;;11.02;39.55
29879;BME280;16752;53.364;-1.488;2022-12-13T12:58:04;99652.88;;;10.95;40.44
29879;BME280;16752;53.364;-1.488;2022-12-13T13:05:45;99642.88;;;10.89;40.25
29879;BME280;16752;53.364;-1.488;2022-12-13T13:10:38;99637.63;;;10.89;40.40
29879;BME280;16752;53.364;-1.488;2022-12-13T13:13:05;99636.41;;;10.82;40.26
29879;BME280;16752;53.364;-1.488;2022-12-13T13:17:56;99630.75;;;10.66;40.43
29879;BME280;16752;53.364;-1.488;2022-12-13T13:20:23;99639.75;;;10.62;41.25
29879;BME280;16752;53.364;-1.488;2022-12-13T13:22:51;99636.66;;;10.57;40.84
29879;BME280;16752;53.364;-1.488;2022-12-13T13:25:21;99634.75;;;10.59;40.88
29879;BME280;16752;53.364;-1.488;2022-12-13T13:27:48;99632.63;;;10.53;40.88
29879;BME280;16752;53.364;-1.488;2022-12-13T13:30:20;99629.78;;;10.45;40.91
29879;BME280;16752;53.364;-1.488;2022-12-13T13:32:48;99629.50;;;10.36;40.69
29879;BME280;16752;53.364;-1.488;2022-12-13T13:37:55;99630.56;;;10.23;41.07
29879;BME280;16752;53.364;-1.488;2022-12-13T13:40:25;99634.69;;;10.14;41.11
29879;BME280;16752;53.364;-1.488;2022-12-13T13:43:02;99632.53;;;10.08;41.37
29879;BME280;16752;53.364;-1.488;2022-12-13T13:45:51;99631.88;;;9.93;42.07
29879;BME280;16752;53.364;-1.488;2022-12-13T13:56:10;99629.66;;;10.00;41.83
29879;BME280;16752;53.364;-1.488;2022-12-13T14:29:41;99611.03;;;9.45;42.78
29879;BME280;16752;53.364;-1.488;2022-12-13T14:34:51;99619.09;;;9.42;43.08
29879;BME280;16752;53.364;-1.488;2022-12-13T14:37:24;99623.38;;;9.43;43.16
29879;BME280;16752;53.364;-1.488;2022-12-13T14:39:51;99623.00;;;9.37;43.30
29879;BME280;16752;53.364;-1.488;2022-12-13T14:42:27;99616.72;;;9.39;43.09
29879;BME280;16752;53.364;-1.488;2022-12-13T14:47:42;99624.31;;;9.42;42.97
29879;BME280;16752;53.364;-1.488;2022-12-13T14:50:10;99622.28;;;9.35;43.34
29879;BME280;16752;53.364;-1.488;2022-12-13T14:52:40;99638.47;;;9.40;43.50
29879;BME280;16752;53.364;-1.488;2022-12-13T14:55:05;99637.66;;;9.27;43.77
29879;BME280;16752;53.364;-1.488;2022-12-13T14:57:33;99629.22;;;9.47;43.51
29879;BME280;16752;53.364;-1.488;2022-12-13T15:00:00;99618.97;;;9.44;43.36
29879;BME280;16752;53.364;-1.488;2022-12-13T15:02:27;99625.25;;;9.17;43.54
29879;BME280;16752;53.364;-1.488;2022-12-13T15:04:57;99629.56;;;9.42;43.36
29879;BME280;16752;53.364;-1.488;2022-12-13T15:10:03;99626.72;;;9.45;43.07